createdAt,value
2022-12-08T00:02:18.621Z,8.23
2022-12-08T00:05:05.453Z,9.20
2022-12-08T00:07:53.709Z,6.30
2022-12-08T00:10:47.939Z,5.20
2022-12-08T00:13:13.319Z,5.77
2022-12-08T00:15:42.278Z,5.60
2022-12-08T00:18:11.279Z,5.93
2022-12-08T00:20:40.201Z,4.80
2022-12-08T00:23:10.590Z,5.40
2022-12-08T00:25:39.552Z,4.47
2022-12-08T00:28:08.559Z,4.80
2022-12-08T00:30:40.663Z,6.50
2022-12-08T00:33:09.709Z,5.17
2022-12-08T00:35:43.110Z,5.57
2022-12-08T00:38:13.855Z,4.70
2022-12-08T00:40:46.573Z,3.27
2022-12-08T00:43:15.914Z,4.50
2022-12-08T00:45:45.052Z,4.23
2022-12-08T00:48:14.130Z,3.17
2022-12-08T00:50:43.064Z,3.87
2022-12-08T00:53:13.618Z,10.47
2022-12-08T00:55:42.559Z,5.80
2022-12-08T00:58:11.558Z,3.77
2022-12-08T01:00:42.340Z,4.57
2022-12-08T01:03:11.803Z,3.93
2022-12-08T01:05:41.378Z,6.23
2022-12-08T01:08:10.909Z,3.80
2022-12-08T01:10:41.708Z,4.17
2022-12-08T01:13:11.754Z,3.93
2022-12-08T01:15:40.878Z,5.17
2022-12-08T01:18:10.548Z,3.90
2022-12-08T01:20:39.858Z,5.20
2022-12-08T01:23:09.599Z,4.63
2022-12-08T01:25:38.708Z,3.73
2022-12-08T01:28:09.373Z,4.23
2022-12-08T01:30:40.272Z,3.43
2022-12-08T01:33:10.538Z,3.57
2022-12-08T01:35:40.687Z,4.63
2022-12-08T01:38:09.953Z,6.13
2022-12-08T01:40:39.068Z,6.30
2022-12-08T01:43:13.895Z,2.83
2022-12-08T01:45:43.182Z,6.90
2022-12-08T01:48:18.277Z,4.70
2022-12-08T01:50:49.668Z,5.83
2022-12-08T01:53:26.367Z,4.23
2022-12-08T01:56:00.144Z,4.03
2022-12-08T01:58:37.539Z,5.10
2022-12-08T02:01:07.392Z,5.50
2022-12-08T02:03:42.579Z,7.07
2022-12-08T02:06:13.039Z,4.03
2022-12-08T02:08:43.728Z,4.17
2022-12-08T02:11:14.868Z,4.70
2022-12-08T02:13:47.836Z,4.10
2022-12-08T02:16:29.392Z,5.27
2022-12-08T02:19:30.467Z,3.80
2022-12-08T02:22:01.534Z,4.57
2022-12-08T02:24:38.534Z,5.13
2022-12-08T02:27:30.016Z,6.63
2022-12-08T02:30:33.943Z,3.37
2022-12-08T02:33:27.965Z,6.10
2022-12-08T02:36:06.456Z,6.17
2022-12-08T02:38:50.293Z,4.50
2022-12-08T02:41:29.756Z,4.40
2022-12-08T02:44:03.433Z,4.37
2022-12-08T02:46:37.322Z,5.53
2022-12-08T02:49:07.864Z,7.57
2022-12-08T02:51:39.045Z,4.20
2022-12-08T02:54:08.749Z,5.13
2022-12-08T02:56:56.378Z,5.20
2022-12-08T02:59:37.464Z,5.53
2022-12-08T03:02:35.894Z,3.90
2022-12-08T03:05:13.448Z,5.50
2022-12-08T03:07:51.635Z,4.27
2022-12-08T03:10:29.545Z,3.57
2022-12-08T03:13:02.834Z,6.73
2022-12-08T03:15:33.669Z,4.70
2022-12-08T03:18:02.783Z,5.27
2022-12-08T03:20:35.110Z,6.03
2022-12-08T03:23:09.994Z,5.87
2022-12-08T03:25:45.386Z,6.40
2022-12-08T03:28:14.854Z,5.20
2022-12-08T03:30:47.443Z,6.43
2022-12-08T03:33:21.102Z,5.23
2022-12-08T03:35:50.921Z,6.27
2022-12-08T03:38:22.177Z,4.60
2022-12-08T03:41:05.609Z,4.90
2022-12-08T03:43:35.113Z,5.37
2022-12-08T03:46:04.388Z,6.97
2022-12-08T03:48:34.063Z,5.27
2022-12-08T03:51:03.236Z,5.70
2022-12-08T03:53:34.044Z,8.07
2022-12-08T03:56:05.105Z,5.33
2022-12-08T03:58:37.518Z,6.60
2022-12-08T04:01:07.032Z,6.57
2022-12-08T04:03:36.056Z,5.67
2022-12-08T04:06:05.501Z,6.60
2022-12-08T04:08:36.649Z,7.23
2022-12-08T04:11:06.942Z,6.23
2022-12-08T04:13:36.440Z,5.10
2022-12-08T04:16:06.563Z,8.23
2022-12-08T04:18:36.845Z,7.20
2022-12-08T04:21:06.258Z,6.40
2022-12-08T04:23:37.065Z,8.90
2022-12-08T04:26:07.145Z,6.53
2022-12-08T04:28:36.403Z,7.00
2022-12-08T04:31:06.213Z,7.63
2022-12-08T04:33:35.554Z,6.40
2022-12-08T04:36:05.929Z,8.60
2022-12-08T04:38:36.738Z,9.60
2022-12-08T04:41:06.311Z,7.60
2022-12-08T04:43:35.359Z,10.23
2022-12-08T04:46:07.543Z,7.83
2022-12-08T04:48:38.059Z,7.47
2022-12-08T04:51:08.094Z,6.83
2022-12-08T04:53:43.401Z,8.70
2022-12-08T04:56:15.933Z,9.67
2022-12-08T04:58:45.403Z,8.43
2022-12-08T05:01:14.964Z,8.87
2022-12-08T05:03:44.209Z,9.90
2022-12-08T05:06:14.912Z,8.57
2022-12-08T05:08:46.850Z,8.97
2022-12-08T05:11:16.104Z,6.80
2022-12-08T05:13:45.479Z,9.13
2022-12-08T05:16:16.408Z,9.03
2022-12-08T05:18:46.000Z,9.90
2022-12-08T05:21:15.092Z,7.47
2022-12-08T05:23:45.673Z,10.50
2022-12-08T05:26:14.679Z,8.23
2022-12-08T05:28:44.459Z,7.90
2022-12-08T05:31:15.306Z,8.70
2022-12-08T05:33:44.994Z,8.60
2022-12-08T05:36:15.603Z,10.30
2022-12-08T05:38:46.948Z,9.83
2022-12-08T05:41:18.589Z,11.57
2022-12-08T05:43:49.160Z,10.13
2022-12-08T05:46:19.291Z,9.83
2022-12-08T05:48:48.454Z,9.23
2022-12-08T05:51:20.318Z,9.17
2022-12-08T05:53:52.363Z,10.27
2022-12-08T05:56:22.094Z,10.77
2022-12-08T05:58:51.834Z,9.03
2022-12-08T06:01:23.090Z,10.50
2022-12-08T06:03:52.536Z,11.77
2022-12-08T06:06:22.387Z,9.87
2022-12-08T06:08:53.475Z,10.00
2022-12-08T06:11:25.068Z,10.23
2022-12-08T06:13:55.108Z,9.17
2022-12-08T06:16:24.885Z,10.20
2022-12-08T06:18:54.518Z,9.17
2022-12-08T06:21:24.181Z,8.63
2022-12-08T06:23:56.406Z,12.23
2022-12-08T06:26:25.796Z,11.97
2022-12-08T06:28:55.109Z,11.00
2022-12-08T06:31:26.702Z,9.40
2022-12-08T06:33:56.761Z,9.77
2022-12-08T06:36:28.042Z,10.47
2022-12-08T06:38:58.800Z,8.87
2022-12-08T06:41:28.063Z,9.53
2022-12-08T06:43:58.538Z,9.73
2022-12-08T06:46:28.100Z,8.80
2022-12-08T06:48:57.191Z,11.97
2022-12-08T06:51:26.544Z,10.47
2022-12-08T06:53:55.803Z,12.17
2022-12-08T06:56:28.274Z,9.93
2022-12-08T06:58:57.839Z,9.90
2022-12-08T07:01:27.211Z,7.23
2022-12-08T07:03:56.448Z,10.63
2022-12-08T07:06:26.918Z,18.53
2022-12-08T07:08:56.037Z,10.97
2022-12-08T07:11:27.292Z,10.40
2022-12-08T07:13:57.884Z,10.83
2022-12-08T07:16:27.071Z,9.27
2022-12-08T07:18:56.203Z,10.93
2022-12-08T07:21:26.095Z,11.07
2022-12-08T07:23:57.851Z,7.87
2022-12-08T07:26:28.653Z,13.53
2022-12-08T07:28:57.646Z,9.87
2022-12-08T07:31:28.683Z,12.53
2022-12-08T07:33:58.733Z,11.43
2022-12-08T07:36:28.163Z,16.80
2022-12-08T07:38:59.390Z,12.30
2022-12-08T07:41:30.453Z,11.10
2022-12-08T07:43:59.873Z,9.13
2022-12-08T07:46:29.333Z,10.60
2022-12-08T07:48:59.053Z,9.20
2022-12-08T07:51:28.084Z,13.47
2022-12-08T07:53:57.198Z,10.17
2022-12-08T07:56:26.489Z,9.73
2022-12-08T07:58:57.175Z,8.47
2022-12-08T08:01:29.071Z,9.70
2022-12-08T08:04:01.630Z,9.53
2022-12-08T08:06:30.820Z,11.50
2022-12-08T08:09:00.076Z,8.03
2022-12-08T08:11:29.174Z,9.47
2022-12-08T08:14:00.091Z,9.47
2022-12-08T08:16:34.976Z,12.87
2022-12-08T08:19:07.159Z,11.93
2022-12-08T08:21:45.348Z,9.07
2022-12-08T08:24:15.170Z,11.60
2022-12-08T08:26:44.309Z,9.60
2022-12-08T08:29:14.890Z,9.23
2022-12-08T08:31:44.201Z,11.70
2022-12-08T08:34:13.337Z,11.33
2022-12-08T08:36:42.556Z,11.03
2022-12-08T08:39:12.724Z,8.77
2022-12-08T08:41:41.837Z,9.47
2022-12-08T08:44:11.003Z,10.30
2022-12-08T08:46:41.797Z,10.30
2022-12-08T08:49:10.929Z,9.20
2022-12-08T08:51:40.108Z,10.67
2022-12-08T08:54:09.219Z,10.03
2022-12-08T08:56:38.263Z,11.30
2022-12-08T08:59:07.453Z,10.47
2022-12-08T09:01:36.611Z,12.77
2022-12-08T09:04:07.172Z,11.53
2022-12-08T09:06:36.383Z,10.97
2022-12-08T09:09:05.625Z,9.27
2022-12-08T09:11:35.084Z,11.87
2022-12-08T09:14:04.150Z,11.73
2022-12-08T09:16:37.490Z,11.20
2022-12-08T09:19:11.263Z,10.10
2022-12-08T09:21:41.474Z,10.63
2022-12-08T09:24:16.015Z,11.03
2022-12-08T09:26:45.889Z,12.70
2022-12-08T09:29:15.044Z,13.00
2022-12-08T09:31:44.217Z,13.13
2022-12-08T09:34:14.863Z,13.97
2022-12-08T09:36:44.091Z,12.57
2022-12-08T09:39:13.054Z,14.13
2022-12-08T09:41:48.461Z,12.77
2022-12-08T09:44:44.378Z,12.27
2022-12-08T09:47:23.706Z,13.93
2022-12-08T09:50:03.740Z,12.23
2022-12-08T09:52:39.463Z,12.63
2022-12-08T09:55:17.868Z,16.70
2022-12-08T09:57:56.146Z,17.47
2022-12-08T10:00:26.088Z,13.10
2022-12-08T10:02:56.684Z,13.77
2022-12-08T10:05:29.797Z,12.50
2022-12-08T10:08:07.297Z,12.10
2022-12-08T10:10:41.409Z,15.27
2022-12-08T10:13:19.103Z,13.13
2022-12-08T10:15:58.051Z,14.00
2022-12-08T10:18:30.474Z,15.07
2022-12-08T10:21:14.954Z,12.57
2022-12-08T10:23:47.204Z,15.90
2022-12-08T10:26:18.179Z,15.23
2022-12-08T10:28:47.478Z,16.53
2022-12-08T10:31:21.285Z,17.30
2022-12-08T10:33:55.827Z,12.43
2022-12-08T10:36:44.416Z,14.33
2022-12-08T10:39:31.633Z,12.57
2022-12-08T10:42:09.229Z,18.47
2022-12-08T10:44:51.786Z,14.50
2022-12-08T10:47:23.147Z,15.07
2022-12-08T10:50:09.106Z,14.33
2022-12-08T10:52:42.165Z,14.37
2022-12-08T10:55:18.798Z,15.50
2022-12-08T10:57:49.856Z,17.17
2022-12-08T11:00:27.120Z,14.90
2022-12-08T11:02:59.775Z,16.50
2022-12-08T11:05:35.415Z,15.33
2022-12-08T11:08:07.150Z,16.50
2022-12-08T11:10:39.118Z,18.37
2022-12-08T11:13:14.654Z,19.03
2022-12-08T11:15:45.940Z,16.93
2022-12-08T11:18:27.066Z,18.63
2022-12-08T11:21:02.879Z,18.03
2022-12-08T11:23:37.681Z,16.13
2022-12-08T11:26:14.174Z,16.13
2022-12-08T11:28:43.479Z,17.33
2022-12-08T11:31:23.993Z,15.77
2022-12-08T11:33:54.373Z,15.47
2022-12-08T11:36:27.653Z,19.97
2022-12-08T11:39:01.047Z,18.17
2022-12-08T11:41:35.612Z,17.93
2022-12-08T11:44:11.886Z,17.00
2022-12-08T11:46:45.297Z,15.80
2022-12-08T11:49:16.104Z,18.33
2022-12-08T11:51:49.872Z,18.20
2022-12-08T11:54:27.820Z,20.23
2022-12-08T11:56:58.850Z,19.53
2022-12-08T11:59:31.732Z,21.33
2022-12-08T12:02:02.690Z,21.40
2022-12-08T12:04:36.210Z,18.70
2022-12-08T12:07:35.133Z,20.80
2022-12-08T12:10:40.984Z,21.40
2022-12-08T12:13:26.048Z,21.63
2022-12-08T12:16:32.932Z,19.47
2022-12-08T12:19:04.510Z,17.93
2022-12-08T12:21:36.873Z,20.37
2022-12-08T12:24:09.227Z,22.90
2022-12-08T12:26:51.748Z,21.97
2022-12-08T12:29:23.952Z,20.30
2022-12-08T12:31:57.332Z,17.77
2022-12-08T12:34:28.381Z,22.30
2022-12-08T12:36:59.330Z,22.67
2022-12-08T12:39:30.764Z,21.13
2022-12-08T12:42:03.175Z,20.20
2022-12-08T12:44:41.575Z,19.57
2022-12-08T12:47:52.606Z,19.93
2022-12-08T12:50:44.739Z,24.37
2022-12-08T12:53:53.505Z,20.70
2022-12-08T12:56:51.913Z,22.87
2022-12-08T12:59:44.028Z,20.63
2022-12-08T13:02:25.312Z,23.87
2022-12-08T13:05:00.893Z,21.63
2022-12-08T13:07:33.443Z,23.30
2022-12-08T13:10:12.561Z,22.40
2022-12-08T13:12:41.959Z,20.77
2022-12-08T13:15:20.319Z,20.83
2022-12-08T13:17:50.966Z,21.77
2022-12-08T13:20:23.752Z,19.83
2022-12-08T13:23:12.823Z,24.23
2022-12-08T13:25:52.685Z,20.73
2022-12-08T13:28:28.573Z,23.00
2022-12-08T13:31:00.843Z,21.87
2022-12-08T13:33:33.398Z,21.27
2022-12-08T13:36:14.360Z,26.33
2022-12-08T13:38:47.194Z,25.63
2022-12-08T13:41:22.010Z,25.27
2022-12-08T13:44:39.161Z,29.20
2022-12-08T13:47:31.527Z,26.43
2022-12-08T13:58:31.829Z,24.33
2022-12-08T14:01:07.796Z,29.37
2022-12-08T14:04:04.730Z,33.50
2022-12-08T14:06:39.744Z,31.73
2022-12-08T14:09:13.157Z,30.90
2022-12-08T14:11:45.275Z,31.13
2022-12-08T14:14:32.803Z,34.20
2022-12-08T14:17:11.156Z,34.80
2022-12-08T14:19:43.946Z,37.60
2022-12-08T14:22:15.332Z,29.70
2022-12-08T14:24:47.251Z,30.20
2022-12-08T14:27:18.814Z,30.70
2022-12-08T14:29:49.982Z,36.93
2022-12-08T14:32:23.119Z,33.37
2022-12-08T14:35:00.113Z,32.80
2022-12-08T14:37:32.683Z,31.90
2022-12-08T14:40:06.065Z,28.60
2022-12-08T14:42:45.234Z,29.37
2022-12-08T14:45:17.262Z,29.27
2022-12-08T14:47:47.193Z,27.73
2022-12-08T14:50:40.573Z,27.27
2022-12-08T14:53:16.040Z,26.40
2022-12-08T14:55:47.866Z,27.70
2022-12-08T14:58:22.281Z,26.40
2022-12-08T15:00:54.767Z,24.87
2022-12-08T15:03:25.046Z,26.30
2022-12-08T15:05:59.914Z,23.97
2022-12-08T15:08:29.016Z,26.00
2022-12-08T15:11:36.497Z,24.70
2022-12-08T15:14:05.801Z,25.93
2022-12-08T15:16:45.971Z,24.50
2022-12-08T15:19:24.468Z,28.83
2022-12-08T15:21:55.037Z,25.87
2022-12-08T15:24:26.823Z,24.13
2022-12-08T15:26:55.925Z,26.70
2022-12-08T15:29:26.312Z,26.10
2022-12-08T15:31:57.755Z,28.83
2022-12-08T15:34:26.862Z,26.30
2022-12-08T15:36:57.509Z,24.73
2022-12-08T15:39:35.058Z,25.27
2022-12-08T15:42:05.389Z,24.53
2022-12-08T15:44:34.329Z,27.70
2022-12-08T15:47:03.795Z,26.53
2022-12-08T15:49:32.864Z,26.63
2022-12-08T15:52:11.676Z,27.53
2022-12-08T15:54:41.081Z,24.67
2022-12-08T15:57:40.290Z,24.57
2022-12-08T16:00:51.893Z,28.50
2022-12-08T16:04:13.910Z,26.20
2022-12-08T16:09:16.082Z,26.27
2022-12-08T16:12:08.142Z,25.80
2022-12-08T16:17:28.729Z,25.77
2022-12-08T16:19:58.371Z,27.53
2022-12-08T16:22:52.756Z,25.20
2022-12-08T16:25:20.944Z,26.77
2022-12-08T16:28:05.271Z,32.77
2022-12-08T16:30:38.255Z,24.70
2022-12-08T16:33:07.564Z,24.60
2022-12-08T16:35:36.816Z,23.37
2022-12-08T16:38:06.413Z,25.67
2022-12-08T16:40:57.967Z,23.87
2022-12-08T16:43:26.304Z,24.10
2022-12-08T16:45:55.560Z,25.33
2022-12-08T16:48:25.560Z,21.63
2022-12-08T16:50:55.474Z,23.60
2022-12-08T16:53:24.953Z,26.67
2022-12-08T16:55:55.612Z,24.57
2022-12-08T16:58:24.652Z,23.60
2022-12-08T17:00:54.401Z,22.57
2022-12-08T17:03:24.134Z,24.03
2022-12-08T17:05:53.765Z,23.77
2022-12-08T17:08:23.180Z,23.93
2022-12-08T17:11:07.511Z,20.87
2022-12-08T17:13:39.406Z,23.23
2022-12-08T17:16:11.320Z,21.87
2022-12-08T17:18:41.052Z,25.30
2022-12-08T17:21:14.409Z,20.60
2022-12-08T17:23:44.976Z,22.07
2022-12-08T17:26:16.591Z,20.93
2022-12-08T17:29:00.670Z,21.57
2022-12-08T17:31:31.772Z,19.73
2022-12-08T17:34:01.478Z,21.23
2022-12-08T17:36:32.626Z,20.87
2022-12-08T17:39:02.762Z,20.37
2022-12-08T17:41:34.537Z,21.10
2022-12-08T17:44:11.395Z,21.90
2022-12-08T17:46:43.349Z,23.23
2022-12-08T17:49:19.149Z,20.93
2022-12-08T17:51:49.885Z,22.73
2022-12-08T17:54:20.280Z,20.43
2022-12-08T17:56:49.810Z,21.17
2022-12-08T17:59:20.977Z,23.47
2022-12-08T18:01:50.603Z,21.50
2022-12-08T18:04:27.012Z,20.57
2022-12-08T18:06:59.997Z,20.00
2022-12-08T18:09:33.114Z,22.67
2022-12-08T18:12:03.001Z,21.63
2022-12-08T18:14:35.463Z,21.73
2022-12-08T18:17:05.821Z,21.23
2022-12-08T18:19:35.520Z,20.23
2022-12-08T18:22:05.185Z,22.77
2022-12-08T18:24:35.275Z,21.00
2022-12-08T18:27:05.123Z,22.00
2022-12-08T18:29:36.296Z,23.53
2022-12-08T18:32:06.240Z,22.93
2022-12-08T18:34:36.568Z,22.17
2022-12-08T18:37:07.551Z,21.33
2022-12-08T18:39:38.063Z,24.37
2022-12-08T18:42:23.140Z,23.50
2022-12-08T18:44:56.798Z,22.63
2022-12-08T18:47:27.113Z,22.50
2022-12-08T18:49:56.828Z,23.30
2022-12-08T18:52:32.115Z,22.57
2022-12-08T18:55:06.709Z,22.90
2022-12-08T18:57:38.885Z,19.67
2022-12-08T19:00:13.110Z,23.90
2022-12-08T19:02:44.966Z,20.83
2022-12-08T19:05:15.565Z,22.60
2022-12-08T19:07:46.572Z,23.17
2022-12-08T19:10:16.733Z,21.80
2022-12-08T19:12:46.956Z,25.40
2022-12-08T19:15:21.379Z,23.80
2022-12-08T19:17:51.272Z,22.47
2022-12-08T19:20:21.473Z,22.77
2022-12-08T19:22:51.218Z,22.70
2022-12-08T19:25:24.688Z,20.90
2022-12-08T19:27:58.176Z,24.47
2022-12-08T19:30:32.521Z,24.23
2022-12-08T19:33:03.128Z,28.07
2022-12-08T19:35:34.057Z,22.17
2022-12-08T19:38:04.836Z,24.73
2022-12-08T19:40:52.283Z,23.90
2022-12-08T19:43:41.457Z,23.57
2022-12-08T19:46:17.744Z,24.30
2022-12-08T19:48:48.399Z,22.23
2022-12-08T19:51:20.207Z,25.90
2022-12-08T19:53:50.555Z,24.43
2022-12-08T19:56:20.836Z,26.67
2022-12-08T19:58:56.634Z,24.13
2022-12-08T20:01:30.064Z,24.63
2022-12-08T20:04:02.055Z,23.47
2022-12-08T20:06:33.081Z,24.57
2022-12-08T20:09:03.521Z,24.13
2022-12-08T20:11:34.390Z,22.50
2022-12-08T20:14:06.730Z,27.37
2022-12-08T20:16:39.331Z,23.33
2022-12-08T20:19:12.925Z,25.27
2022-12-08T20:21:44.213Z,23.27
2022-12-08T20:24:17.297Z,25.77
2022-12-08T20:26:48.033Z,23.43
2022-12-08T20:29:20.772Z,24.20
2022-12-08T20:31:53.408Z,24.13
2022-12-08T20:34:25.632Z,23.77
2022-12-08T20:36:57.471Z,24.27
2022-12-08T20:39:28.214Z,25.83
2022-12-08T20:41:59.285Z,23.30
2022-12-08T20:44:30.665Z,25.20
2022-12-08T20:47:03.484Z,23.63
2022-12-08T20:49:34.913Z,25.53
2022-12-08T20:52:05.321Z,23.70
2022-12-08T20:54:35.426Z,21.77
2022-12-08T20:57:06.336Z,44.43
2022-12-08T20:59:37.364Z,24.87
2022-12-08T21:02:08.234Z,24.53
2022-12-08T21:04:38.470Z,24.33
2022-12-08T21:07:09.012Z,23.07
2022-12-08T21:09:38.829Z,24.53
2022-12-08T21:12:09.377Z,23.40
2022-12-08T21:14:38.708Z,24.30
2022-12-08T21:17:09.389Z,27.23
2022-12-08T21:19:38.636Z,27.37
2022-12-08T21:22:08.568Z,26.30
2022-12-08T21:24:38.670Z,22.33
2022-12-08T21:27:07.807Z,23.60
2022-12-08T21:29:36.875Z,22.83
2022-12-08T21:32:06.139Z,23.63
2022-12-08T21:34:36.733Z,21.37
2022-12-08T21:37:05.881Z,23.93
2022-12-08T21:39:34.986Z,20.63
2022-12-08T21:42:22.807Z,20.17
2022-12-08T21:44:52.218Z,22.23
2022-12-08T21:47:21.579Z,22.53
2022-12-08T21:49:52.142Z,19.57
2022-12-08T21:52:21.160Z,20.97
2022-12-08T21:54:50.350Z,20.80
2022-12-08T21:57:19.658Z,24.20
2022-12-08T21:59:48.874Z,20.63
2022-12-08T22:02:22.161Z,19.90
2022-12-08T22:04:53.951Z,22.53
2022-12-08T22:07:23.451Z,20.83
2022-12-08T22:09:52.715Z,21.23
2022-12-08T22:12:21.787Z,21.57
2022-12-08T22:14:51.420Z,22.20
2022-12-08T22:17:20.520Z,24.33
2022-12-08T22:19:49.718Z,21.83
2022-12-08T22:22:20.399Z,23.23
2022-12-08T22:24:49.855Z,24.07
2022-12-08T22:27:19.185Z,20.80
2022-12-08T22:29:48.734Z,21.30
2022-12-08T22:32:18.188Z,24.00
2022-12-08T22:34:47.325Z,22.97
2022-12-08T22:37:16.392Z,23.07
2022-12-08T22:39:47.089Z,22.10
2022-12-08T22:42:16.403Z,21.60
2022-12-08T22:44:45.487Z,22.60
2022-12-08T22:47:14.744Z,23.60
2022-12-08T22:49:44.011Z,24.03
2022-12-08T22:52:13.087Z,24.20
2022-12-08T22:54:42.324Z,23.03
2022-12-08T22:57:12.953Z,22.57
2022-12-08T22:59:41.941Z,26.13
2022-12-08T23:02:11.462Z,26.53
2022-12-08T23:04:40.616Z,22.70
2022-12-08T23:07:09.700Z,24.53
2022-12-08T23:09:38.628Z,25.80
2022-12-08T23:12:08.242Z,26.50
2022-12-08T23:14:38.651Z,24.33
2022-12-08T23:17:08.180Z,25.83
2022-12-08T23:19:37.892Z,25.10
2022-12-08T23:22:07.120Z,25.07
2022-12-08T23:24:36.238Z,23.10
2022-12-08T23:27:05.519Z,23.80
2022-12-08T23:29:34.728Z,22.80
2022-12-08T23:32:06.954Z,25.03
2022-12-08T23:34:36.339Z,24.17
2022-12-08T23:37:05.499Z,32.90
2022-12-08T23:39:34.812Z,23.60
2022-12-08T23:42:03.779Z,24.13
2022-12-08T23:44:33.196Z,21.37
2022-12-08T23:47:02.347Z,29.03
2022-12-08T23:49:33.456Z,24.87
2022-12-08T23:52:02.830Z,23.73
2022-12-08T23:54:31.796Z,24.33
2022-12-08T23:57:00.746Z,22.50
2022-12-08T23:59:29.634Z,25.17
